sensor_id;sensor_type;location;lat;lon;timestamp;P1;durP1;ratioP1;P2;durP2;ratioP2
52918;SDS011;38793;52.690;6.812;2023-04-03T00:00:47;3.57;;;0.60;;
52918;SDS011;38793;52.690;6.812;2023-04-03T00:03:14;1.50;;;0.52;;
52918;SDS011;38793;52.690;6.812;2023-04-03T00:05:40;1.43;;;0.53;;
52918;SDS011;38793;52.690;6.812;2023-04-03T00:08:06;2.50;;;0.52;;
52918;SDS011;38793;52.690;6.812;2023-04-03T00:10:32;3.13;;;0.70;;
52918;SDS011;38793;52.690;6.812;2023-04-03T00:12:58;3.03;;;0.50;;
52918;SDS011;38793;52.690;6.812;2023-04-03T00:15:24;1.20;;;0.95;;
52918;SDS011;38793;52.690;6.812;2023-04-03T00:17:50;3.30;;;0.63;;
52918;SDS011;38793;52.690;6.812;2023-04-03T00:20:15;6.43;;;0.67;;
52918;SDS011;38793;52.690;6.812;2023-04-03T00:22:41;2.90;;;0.55;;
52918;SDS011;38793;52.690;6.812;2023-04-03T00:25:07;3.63;;;1.17;;
52918;SDS011;38793;52.690;6.812;2023-04-03T00:27:35;2.97;;;0.75;;
52918;SDS011;38793;52.690;6.812;2023-04-03T00:30:02;2.70;;;0.77;;
52918;SDS011;38793;52.690;6.812;2023-04-03T00:32:27;4.07;;;0.57;;
52918;SDS011;38793;52.690;6.812;2023-04-03T00:34:53;7.67;;;1.13;;
52918;SDS011;38793;52.690;6.812;2023-04-03T00:37:19;4.43;;;0.60;;
52918;SDS011;38793;52.690;6.812;2023-04-03T00:39:44;2.87;;;1.10;;
52918;SDS011;38793;52.690;6.812;2023-04-03T00:42:10;7.90;;;0.90;;
52918;SDS011;38793;52.690;6.812;2023-04-03T00:47:02;4.83;;;0.70;;
52918;SDS011;38793;52.690;6.812;2023-04-03T00:49:30;4.07;;;0.80;;
52918;SDS011;38793;52.690;6.812;2023-04-03T00:51:56;4.05;;;0.77;;
52918;SDS011;38793;52.690;6.812;2023-04-03T00:54:23;3.45;;;0.52;;
52918;SDS011;38793;52.690;6.812;2023-04-03T00:59:17;3.28;;;0.68;;
52918;SDS011;38793;52.690;6.812;2023-04-03T01:01:48;2.08;;;1.05;;
52918;SDS011;38793;52.690;6.812;2023-04-03T01:04:27;3.83;;;0.60;;
52918;SDS011;38793;52.690;6.812;2023-04-03T01:07:02;3.38;;;0.93;;
52918;SDS011;38793;52.690;6.812;2023-04-03T01:09:32;1.50;;;0.60;;
52918;SDS011;38793;52.690;6.812;2023-04-03T01:14:43;5.22;;;0.77;;
52918;SDS011;38793;52.690;6.812;2023-04-03T01:17:24;2.47;;;1.00;;
52918;SDS011;38793;52.690;6.812;2023-04-03T01:25:30;2.08;;;0.75;;
52918;SDS011;38793;52.690;6.812;2023-04-03T01:27:56;4.75;;;0.85;;
52918;SDS011;38793;52.690;6.812;2023-04-03T01:30:24;3.17;;;0.63;;
52918;SDS011;38793;52.690;6.812;2023-04-03T01:32:55;8.60;;;1.15;;
52918;SDS011;38793;52.690;6.812;2023-04-03T01:35:21;6.10;;;1.35;;
52918;SDS011;38793;52.690;6.812;2023-04-03T01:37:46;3.17;;;1.03;;
52918;SDS011;38793;52.690;6.812;2023-04-03T01:40:12;1.80;;;0.70;;
52918;SDS011;38793;52.690;6.812;2023-04-03T01:42:37;4.00;;;0.87;;
52918;SDS011;38793;52.690;6.812;2023-04-03T01:45:03;6.47;;;1.73;;
52918;SDS011;38793;52.690;6.812;2023-04-03T01:47:29;2.70;;;0.82;;
52918;SDS011;38793;52.690;6.812;2023-04-03T01:49:55;3.30;;;1.47;;
52918;SDS011;38793;52.690;6.812;2023-04-03T01:52:20;5.70;;;1.40;;
52918;SDS011;38793;52.690;6.812;2023-04-03T01:54:46;2.20;;;1.00;;
52918;SDS011;38793;52.690;6.812;2023-04-03T01:57:11;2.90;;;0.80;;
52918;SDS011;38793;52.690;6.812;2023-04-03T02:02:04;3.08;;;1.00;;
52918;SDS011;38793;52.690;6.812;2023-04-03T02:04:29;4.85;;;0.75;;
52918;SDS011;38793;52.690;6.812;2023-04-03T02:06:55;3.07;;;0.97;;
52918;SDS011;38793;52.690;6.812;2023-04-03T02:09:20;3.40;;;1.00;;
52918;SDS011;38793;52.690;6.812;2023-04-03T02:11:46;3.70;;;0.73;;
52918;SDS011;38793;52.690;6.812;2023-04-03T02:14:12;5.40;;;0.93;;
52918;SDS011;38793;52.690;6.812;2023-04-03T02:16:37;3.47;;;1.00;;
52918;SDS011;38793;52.690;6.812;2023-04-03T02:19:03;5.23;;;1.37;;
52918;SDS011;38793;52.690;6.812;2023-04-03T02:21:28;4.73;;;1.10;;
52918;SDS011;38793;52.690;6.812;2023-04-03T02:23:54;4.15;;;0.98;;
52918;SDS011;38793;52.690;6.812;2023-04-03T02:26:20;1.87;;;0.80;;
52918;SDS011;38793;52.690;6.812;2023-04-03T02:28:46;5.17;;;0.87;;
52918;SDS011;38793;52.690;6.812;2023-04-03T02:31:11;2.22;;;1.30;;
52918;SDS011;38793;52.690;6.812;2023-04-03T02:33:37;1.63;;;0.93;;
52918;SDS011;38793;52.690;6.812;2023-04-03T02:36:04;3.20;;;0.63;;
52918;SDS011;38793;52.690;6.812;2023-04-03T02:38:30;3.55;;;1.25;;
52918;SDS011;38793;52.690;6.812;2023-04-03T02:41:06;4.43;;;1.10;;
52918;SDS011;38793;52.690;6.812;2023-04-03T02:43:34;3.30;;;0.98;;
52918;SDS011;38793;52.690;6.812;2023-04-03T02:45:59;7.80;;;1.60;;
52918;SDS011;38793;52.690;6.812;2023-04-03T02:48:25;5.38;;;1.48;;
52918;SDS011;38793;52.690;6.812;2023-04-03T02:50:51;2.47;;;0.95;;
52918;SDS011;38793;52.690;6.812;2023-04-03T02:53:17;7.00;;;1.50;;
52918;SDS011;38793;52.690;6.812;2023-04-03T02:55:44;4.07;;;1.17;;
52918;SDS011;38793;52.690;6.812;2023-04-03T02:58:10;8.68;;;1.30;;
52918;SDS011;38793;52.690;6.812;2023-04-03T03:00:36;1.63;;;1.20;;
52918;SDS011;38793;52.690;6.812;2023-04-03T03:03:02;3.15;;;1.67;;
52918;SDS011;38793;52.690;6.812;2023-04-03T03:05:28;3.50;;;1.27;;
52918;SDS011;38793;52.690;6.812;2023-04-03T03:07:54;4.20;;;0.97;;
52918;SDS011;38793;52.690;6.812;2023-04-03T03:10:20;2.72;;;1.15;;
52918;SDS011;38793;52.690;6.812;2023-04-03T03:12:46;4.30;;;1.77;;
52918;SDS011;38793;52.690;6.812;2023-04-03T03:15:12;5.60;;;1.00;;
52918;SDS011;38793;52.690;6.812;2023-04-03T03:17:38;5.15;;;1.67;;
52918;SDS011;38793;52.690;6.812;2023-04-03T03:20:04;3.42;;;1.40;;
52918;SDS011;38793;52.690;6.812;2023-04-03T03:22:30;2.97;;;0.98;;
52918;SDS011;38793;52.690;6.812;2023-04-03T03:24:56;3.22;;;1.10;;
52918;SDS011;38793;52.690;6.812;2023-04-03T03:27:22;7.77;;;2.10;;
52918;SDS011;38793;52.690;6.812;2023-04-03T03:32:14;7.18;;;1.33;;
52918;SDS011;38793;52.690;6.812;2023-04-03T03:34:40;5.53;;;1.07;;
52918;SDS011;38793;52.690;6.812;2023-04-03T03:37:05;3.73;;;0.97;;
52918;SDS011;38793;52.690;6.812;2023-04-03T03:39:31;3.17;;;1.17;;
52918;SDS011;38793;52.690;6.812;2023-04-03T03:41:57;3.80;;;1.37;;
52918;SDS011;38793;52.690;6.812;2023-04-03T03:44:22;7.27;;;1.63;;
52918;SDS011;38793;52.690;6.812;2023-04-03T03:46:48;4.90;;;1.30;;
52918;SDS011;38793;52.690;6.812;2023-04-03T03:49:13;5.43;;;1.40;;
52918;SDS011;38793;52.690;6.812;2023-04-03T03:51:39;2.13;;;0.90;;
52918;SDS011;38793;52.690;6.812;2023-04-03T03:54:05;3.83;;;1.42;;
52918;SDS011;38793;52.690;6.812;2023-04-03T03:56:31;4.68;;;1.40;;
52918;SDS011;38793;52.690;6.812;2023-04-03T03:58:57;3.58;;;1.27;;
52918;SDS011;38793;52.690;6.812;2023-04-03T04:01:23;4.97;;;1.10;;
52918;SDS011;38793;52.690;6.812;2023-04-03T04:03:49;4.20;;;1.17;;
52918;SDS011;38793;52.690;6.812;2023-04-03T04:06:15;3.30;;;1.50;;
52918;SDS011;38793;52.690;6.812;2023-04-03T04:08:41;7.43;;;2.93;;
52918;SDS011;38793;52.690;6.812;2023-04-03T04:11:07;4.15;;;1.70;;
52918;SDS011;38793;52.690;6.812;2023-04-03T04:13:33;2.78;;;1.50;;
52918;SDS011;38793;52.690;6.812;2023-04-03T04:15:59;8.83;;;1.77;;
52918;SDS011;38793;52.690;6.812;2023-04-03T04:18:24;3.50;;;1.57;;
52918;SDS011;38793;52.690;6.812;2023-04-03T04:20:50;7.63;;;1.37;;
52918;SDS011;38793;52.690;6.812;2023-04-03T04:23:16;3.50;;;1.17;;
52918;SDS011;38793;52.690;6.812;2023-04-03T04:25:46;6.65;;;1.45;;
52918;SDS011;38793;52.690;6.812;2023-04-03T04:28:12;6.57;;;1.52;;
52918;SDS011;38793;52.690;6.812;2023-04-03T04:30:38;6.03;;;1.73;;
52918;SDS011;38793;52.690;6.812;2023-04-03T04:33:03;8.27;;;2.67;;
52918;SDS011;38793;52.690;6.812;2023-04-03T04:35:29;6.43;;;1.67;;
52918;SDS011;38793;52.690;6.812;2023-04-03T04:37:55;7.13;;;1.70;;
52918;SDS011;38793;52.690;6.812;2023-04-03T04:40:21;6.60;;;1.97;;
52918;SDS011;38793;52.690;6.812;2023-04-03T04:42:47;8.70;;;2.15;;
52918;SDS011;38793;52.690;6.812;2023-04-03T04:45:12;4.53;;;1.57;;
52918;SDS011;38793;52.690;6.812;2023-04-03T04:47:39;4.90;;;1.95;;
52918;SDS011;38793;52.690;6.812;2023-04-03T04:50:05;7.25;;;1.80;;
52918;SDS011;38793;52.690;6.812;2023-04-03T04:52:31;7.32;;;1.63;;
52918;SDS011;38793;52.690;6.812;2023-04-03T04:54:57;8.07;;;2.30;;
52918;SDS011;38793;52.690;6.812;2023-04-03T04:57:22;3.03;;;1.57;;
52918;SDS011;38793;52.690;6.812;2023-04-03T04:59:48;8.93;;;1.60;;
52918;SDS011;38793;52.690;6.812;2023-04-03T05:02:14;5.17;;;1.40;;
52918;SDS011;38793;52.690;6.812;2023-04-03T05:04:39;9.17;;;2.00;;
52918;SDS011;38793;52.690;6.812;2023-04-03T05:07:05;6.17;;;2.00;;
52918;SDS011;38793;52.690;6.812;2023-04-03T05:09:30;4.67;;;1.70;;
52918;SDS011;38793;52.690;6.812;2023-04-03T05:11:56;5.77;;;1.43;;
52918;SDS011;38793;52.690;6.812;2023-04-03T05:14:22;6.00;;;1.88;;
52918;SDS011;38793;52.690;6.812;2023-04-03T05:16:48;7.10;;;1.88;;
52918;SDS011;38793;52.690;6.812;2023-04-03T05:19:17;6.30;;;1.70;;
52918;SDS011;38793;52.690;6.812;2023-04-03T05:21:43;8.40;;;2.40;;
52918;SDS011;38793;52.690;6.812;2023-04-03T05:24:09;5.07;;;1.60;;
52918;SDS011;38793;52.690;6.812;2023-04-03T05:26:34;4.30;;;1.73;;
52918;SDS011;38793;52.690;6.812;2023-04-03T05:29:00;6.63;;;2.20;;
52918;SDS011;38793;52.690;6.812;2023-04-03T05:31:26;6.22;;;1.70;;
52918;SDS011;38793;52.690;6.812;2023-04-03T05:33:54;7.80;;;2.03;;
52918;SDS011;38793;52.690;6.812;2023-04-03T05:36:20;11.98;;;2.47;;
52918;SDS011;38793;52.690;6.812;2023-04-03T05:38:46;6.15;;;1.38;;
52918;SDS011;38793;52.690;6.812;2023-04-03T05:41:12;13.07;;;1.77;;
52918;SDS011;38793;52.690;6.812;2023-04-03T05:43:38;4.75;;;2.20;;
52918;SDS011;38793;52.690;6.812;2023-04-03T05:46:08;8.98;;;1.73;;
52918;SDS011;38793;52.690;6.812;2023-04-03T05:48:38;7.20;;;2.30;;
52918;SDS011;38793;52.690;6.812;2023-04-03T05:51:04;6.03;;;1.50;;
52918;SDS011;38793;52.690;6.812;2023-04-03T05:53:31;6.20;;;2.08;;
52918;SDS011;38793;52.690;6.812;2023-04-03T05:56:01;9.93;;;1.00;;
52918;SDS011;38793;52.690;6.812;2023-04-03T05:58:26;4.90;;;2.00;;
52918;SDS011;38793;52.690;6.812;2023-04-03T06:00:52;3.77;;;1.73;;
52918;SDS011;38793;52.690;6.812;2023-04-03T06:03:17;6.50;;;1.53;;
52918;SDS011;38793;52.690;6.812;2023-04-03T06:05:43;5.73;;;1.20;;
52918;SDS011;38793;52.690;6.812;2023-04-03T06:08:08;5.63;;;1.77;;
52918;SDS011;38793;52.690;6.812;2023-04-03T06:10:34;6.10;;;0.97;;
52918;SDS011;38793;52.690;6.812;2023-04-03T06:13:01;7.03;;;1.10;;
52918;SDS011;38793;52.690;6.812;2023-04-03T06:15:27;8.70;;;2.53;;
52918;SDS011;38793;52.690;6.812;2023-04-03T06:17:53;3.70;;;1.27;;
52918;SDS011;38793;52.690;6.812;2023-04-03T06:20:19;8.67;;;2.07;;
52918;SDS011;38793;52.690;6.812;2023-04-03T06:22:44;3.58;;;1.25;;
52918;SDS011;38793;52.690;6.812;2023-04-03T06:25:10;8.25;;;1.15;;
52918;SDS011;38793;52.690;6.812;2023-04-03T06:27:37;6.68;;;1.60;;
52918;SDS011;38793;52.690;6.812;2023-04-03T06:30:03;4.20;;;1.55;;
52918;SDS011;38793;52.690;6.812;2023-04-03T06:32:31;2.95;;;1.58;;
52918;SDS011;38793;52.690;6.812;2023-04-03T06:34:56;3.87;;;1.47;;
52918;SDS011;38793;52.690;6.812;2023-04-03T06:37:23;2.30;;;1.02;;
52918;SDS011;38793;52.690;6.812;2023-04-03T06:39:52;6.55;;;1.92;;
52918;SDS011;38793;52.690;6.812;2023-04-03T06:42:17;6.13;;;1.20;;
52918;SDS011;38793;52.690;6.812;2023-04-03T06:44:43;4.57;;;1.20;;
52918;SDS011;38793;52.690;6.812;2023-04-03T06:47:12;5.33;;;0.97;;
52918;SDS011;38793;52.690;6.812;2023-04-03T06:49:39;4.82;;;1.77;;
52918;SDS011;38793;52.690;6.812;2023-04-03T06:52:05;3.37;;;1.40;;
52918;SDS011;38793;52.690;6.812;2023-04-03T06:54:31;8.43;;;1.30;;
52918;SDS011;38793;52.690;6.812;2023-04-03T06:56:57;18.95;;;2.28;;
52918;SDS011;38793;52.690;6.812;2023-04-03T06:59:23;6.45;;;1.48;;
52918;SDS011;38793;52.690;6.812;2023-04-03T07:01:49;5.45;;;1.33;;
52918;SDS011;38793;52.690;6.812;2023-04-03T07:04:15;5.38;;;1.20;;
52918;SDS011;38793;52.690;6.812;2023-04-03T07:06:41;8.65;;;1.25;;
52918;SDS011;38793;52.690;6.812;2023-04-03T07:09:08;11.43;;;1.80;;
52918;SDS011;38793;52.690;6.812;2023-04-03T07:11:35;9.38;;;1.45;;
52918;SDS011;38793;52.690;6.812;2023-04-03T07:14:01;4.03;;;0.80;;
52918;SDS011;38793;52.690;6.812;2023-04-03T07:16:27;2.38;;;0.73;;
52918;SDS011;38793;52.690;6.812;2023-04-03T07:18:55;8.68;;;1.23;;
52918;SDS011;38793;52.690;6.812;2023-04-03T07:21:22;4.32;;;1.13;;
52918;SDS011;38793;52.690;6.812;2023-04-03T07:23:48;4.80;;;1.23;;
52918;SDS011;38793;52.690;6.812;2023-04-03T07:26:14;5.30;;;0.87;;
52918;SDS011;38793;52.690;6.812;2023-04-03T07:28:39;4.55;;;1.05;;
52918;SDS011;38793;52.690;6.812;2023-04-03T07:31:06;6.82;;;0.93;;
52918;SDS011;38793;52.690;6.812;2023-04-03T07:33:36;5.03;;;0.90;;
52918;SDS011;38793;52.690;6.812;2023-04-03T07:36:02;2.70;;;0.73;;
52918;SDS011;38793;52.690;6.812;2023-04-03T07:38:28;2.78;;;1.02;;
52918;SDS011;38793;52.690;6.812;2023-04-03T07:40:54;8.93;;;2.10;;
52918;SDS011;38793;52.690;6.812;2023-04-03T07:43:20;4.90;;;1.58;;
52918;SDS011;38793;52.690;6.812;2023-04-03T07:45:48;3.60;;;1.00;;
52918;SDS011;38793;52.690;6.812;2023-04-03T07:48:24;17.85;;;1.50;;
52918;SDS011;38793;52.690;6.812;2023-04-03T07:50:50;4.30;;;0.80;;
52918;SDS011;38793;52.690;6.812;2023-04-03T07:53:17;5.72;;;0.98;;
52918;SDS011;38793;52.690;6.812;2023-04-03T07:55:43;3.88;;;0.52;;
52918;SDS011;38793;52.690;6.812;2023-04-03T07:58:13;2.90;;;0.80;;
52918;SDS011;38793;52.690;6.812;2023-04-03T08:00:40;1.77;;;0.45;;
52918;SDS011;38793;52.690;6.812;2023-04-03T08:03:06;3.85;;;0.80;;
52918;SDS011;38793;52.690;6.812;2023-04-03T08:05:38;3.72;;;0.45;;
52918;SDS011;38793;52.690;6.812;2023-04-03T08:08:08;6.18;;;0.77;;
52918;SDS011;38793;52.690;6.812;2023-04-03T08:10:34;3.60;;;0.80;;
52918;SDS011;38793;52.690;6.812;2023-04-03T08:13:01;3.70;;;0.60;;
52918;SDS011;38793;52.690;6.812;2023-04-03T08:15:27;3.03;;;0.52;;
52918;SDS011;38793;52.690;6.812;2023-04-03T08:17:53;3.70;;;0.63;;
52918;SDS011;38793;52.690;6.812;2023-04-03T08:20:19;2.40;;;0.65;;
52918;SDS011;38793;52.690;6.812;2023-04-03T08:22:45;2.67;;;0.60;;
52918;SDS011;38793;52.690;6.812;2023-04-03T08:25:11;2.47;;;0.57;;
52918;SDS011;38793;52.690;6.812;2023-04-03T08:27:36;3.40;;;0.43;;
52918;SDS011;38793;52.690;6.812;2023-04-03T08:30:03;2.28;;;0.85;;
52918;SDS011;38793;52.690;6.812;2023-04-03T08:32:29;1.67;;;0.38;;
52918;SDS011;38793;52.690;6.812;2023-04-03T08:34:55;2.85;;;0.70;;
52918;SDS011;38793;52.690;6.812;2023-04-03T08:37:20;2.80;;;0.57;;
52918;SDS011;38793;52.690;6.812;2023-04-03T08:39:46;3.38;;;0.50;;
52918;SDS011;38793;52.690;6.812;2023-04-03T08:42:59;2.85;;;0.40;;
52918;SDS011;38793;52.690;6.812;2023-04-03T08:45:10;1.70;;;0.95;;
52918;SDS011;38793;52.690;6.812;2023-04-03T08:47:41;2.55;;;0.88;;
52918;SDS011;38793;52.690;6.812;2023-04-03T08:50:18;3.75;;;0.82;;
52918;SDS011;38793;52.690;6.812;2023-04-03T08:52:51;1.90;;;0.52;;
52918;SDS011;38793;52.690;6.812;2023-04-03T08:58:03;2.95;;;1.10;;
52918;SDS011;38793;52.690;6.812;2023-04-03T09:00:46;1.20;;;0.40;;
52918;SDS011;38793;52.690;6.812;2023-04-03T09:03:29;1.92;;;0.40;;
52918;SDS011;38793;52.690;6.812;2023-04-03T09:06:16;2.70;;;0.40;;
52918;SDS011;38793;52.690;6.812;2023-04-03T09:09:02;4.60;;;0.70;;
52918;SDS011;38793;52.690;6.812;2023-04-03T09:15:02;2.10;;;0.50;;
52918;SDS011;38793;52.690;6.812;2023-04-03T09:20:13;4.67;;;0.67;;
52918;SDS011;38793;52.690;6.812;2023-04-03T09:22:45;1.20;;;0.50;;
52918;SDS011;38793;52.690;6.812;2023-04-03T09:25:18;3.10;;;0.50;;
52918;SDS011;38793;52.690;6.812;2023-04-03T09:27:51;2.30;;;0.43;;
52918;SDS011;38793;52.690;6.812;2023-04-03T09:30:22;1.42;;;0.40;;
52918;SDS011;38793;52.690;6.812;2023-04-03T09:32:50;4.18;;;0.35;;
52918;SDS011;38793;52.690;6.812;2023-04-03T09:35:23;1.25;;;0.30;;
52918;SDS011;38793;52.690;6.812;2023-04-03T09:37:55;1.35;;;0.28;;
52918;SDS011;38793;52.690;6.812;2023-04-03T09:42:55;2.90;;;0.60;;
52918;SDS011;38793;52.690;6.812;2023-04-03T09:45:28;1.60;;;0.30;;
52918;SDS011;38793;52.690;6.812;2023-04-03T09:50:37;1.30;;;0.30;;
52918;SDS011;38793;52.690;6.812;2023-04-03T09:53:11;1.15;;;0.20;;
52918;SDS011;38793;52.690;6.812;2023-04-03T09:58:46;2.50;;;0.82;;
52918;SDS011;38793;52.690;6.812;2023-04-03T10:04:03;1.30;;;0.45;;
52918;SDS011;38793;52.690;6.812;2023-04-03T10:06:32;1.83;;;0.30;;
52918;SDS011;38793;52.690;6.812;2023-04-03T10:09:02;1.48;;;0.30;;
52918;SDS011;38793;52.690;6.812;2023-04-03T10:11:30;1.88;;;0.43;;
52918;SDS011;38793;52.690;6.812;2023-04-03T10:14:00;0.35;;;0.20;;
52918;SDS011;38793;52.690;6.812;2023-04-03T10:21:54;1.85;;;0.45;;
52918;SDS011;38793;52.690;6.812;2023-04-03T10:24:28;4.10;;;0.30;;
52918;SDS011;38793;52.690;6.812;2023-04-03T10:27:17;6.50;;;0.50;;
52918;SDS011;38793;52.690;6.812;2023-04-03T10:29:59;1.60;;;0.28;;
52918;SDS011;38793;52.690;6.812;2023-04-03T10:35:44;3.10;;;0.30;;
52918;SDS011;38793;52.690;6.812;2023-04-03T10:40:54;1.48;;;0.30;;
52918;SDS011;38793;52.690;6.812;2023-04-03T10:46:43;2.13;;;0.30;;
52918;SDS011;38793;52.690;6.812;2023-04-03T10:49:35;2.78;;;0.50;;
52918;SDS011;38793;52.690;6.812;2023-04-03T10:52:20;4.38;;;0.60;;
52918;SDS011;38793;52.690;6.812;2023-04-03T10:57:28;2.88;;;0.50;;
52918;SDS011;38793;52.690;6.812;2023-04-03T10:59:56;2.42;;;1.02;;
52918;SDS011;38793;52.690;6.812;2023-04-03T11:05:03;1.63;;;0.30;;
52918;SDS011;38793;52.690;6.812;2023-04-03T11:07:50;1.85;;;0.57;;
52918;SDS011;38793;52.690;6.812;2023-04-03T11:10:21;1.75;;;0.22;;
52918;SDS011;38793;52.690;6.812;2023-04-03T11:13:02;1.45;;;0.73;;
52918;SDS011;38793;52.690;6.812;2023-04-03T11:15:38;1.77;;;0.25;;
52918;SDS011;38793;52.690;6.812;2023-04-03T11:18:06;3.03;;;0.33;;
52918;SDS011;38793;52.690;6.812;2023-04-03T11:20:38;0.98;;;0.43;;
52918;SDS011;38793;52.690;6.812;2023-04-03T11:23:29;2.42;;;0.50;;
52918;SDS011;38793;52.690;6.812;2023-04-03T11:26:04;1.52;;;0.38;;
52918;SDS011;38793;52.690;6.812;2023-04-03T11:28:34;0.95;;;0.40;;
52918;SDS011;38793;52.690;6.812;2023-04-03T11:31:04;3.08;;;0.73;;
52918;SDS011;38793;52.690;6.812;2023-04-03T11:36:59;0.88;;;0.20;;
52918;SDS011;38793;52.690;6.812;2023-04-03T11:39:33;1.15;;;0.40;;
52918;SDS011;38793;52.690;6.812;2023-04-03T11:44:51;1.50;;;0.30;;
52918;SDS011;38793;52.690;6.812;2023-04-03T11:47:59;1.58;;;0.50;;
52918;SDS011;38793;52.690;6.812;2023-04-03T12:08:43;1.95;;;0.73;;
52918;SDS011;38793;52.690;6.812;2023-04-03T12:11:15;2.35;;;0.28;;
52918;SDS011;38793;52.690;6.812;2023-04-03T12:16:26;0.60;;;0.20;;
52918;SDS011;38793;52.690;6.812;2023-04-03T12:19:47;3.63;;;0.47;;
52918;SDS011;38793;52.690;6.812;2023-04-03T12:24:31;1.30;;;0.40;;
52918;SDS011;38793;52.690;6.812;2023-04-03T12:41:04;2.15;;;0.30;;
52918;SDS011;38793;52.690;6.812;2023-04-03T12:46:28;1.90;;;0.30;;
52918;SDS011;38793;52.690;6.812;2023-04-03T12:49:02;1.05;;;0.35;;
52918;SDS011;38793;52.690;6.812;2023-04-03T12:52:30;0.45;;;0.38;;
52918;SDS011;38793;52.690;6.812;2023-04-03T12:55:00;1.27;;;0.30;;
52918;SDS011;38793;52.690;6.812;2023-04-03T12:57:29;3.88;;;0.75;;
52918;SDS011;38793;52.690;6.812;2023-04-03T13:02:28;1.50;;;0.50;;
52918;SDS011;38793;52.690;6.812;2023-04-03T13:04:57;2.25;;;0.35;;
52918;SDS011;38793;52.690;6.812;2023-04-03T13:07:29;2.15;;;0.75;;
52918;SDS011;38793;52.690;6.812;2023-04-03T13:10:19;3.22;;;0.40;;
52918;SDS011;38793;52.690;6.812;2023-04-03T13:15:22;2.30;;;0.43;;
52918;SDS011;38793;52.690;6.812;2023-04-03T13:17:52;1.05;;;0.40;;
52918;SDS011;38793;52.690;6.812;2023-04-03T13:22:48;1.90;;;0.40;;
52918;SDS011;38793;52.690;6.812;2023-04-03T13:25:24;2.15;;;0.40;;
52918;SDS011;38793;52.690;6.812;2023-04-03T13:27:53;2.97;;;0.47;;
52918;SDS011;38793;52.690;6.812;2023-04-03T13:30:25;2.33;;;0.60;;
52918;SDS011;38793;52.690;6.812;2023-04-03T13:35:38;1.55;;;0.30;;
52918;SDS011;38793;52.690;6.812;2023-04-03T13:38:27;1.10;;;0.50;;
52918;SDS011;38793;52.690;6.812;2023-04-03T13:40:55;0.70;;;0.28;;
52918;SDS011;38793;52.690;6.812;2023-04-03T13:43:27;0.68;;;0.40;;
52918;SDS011;38793;52.690;6.812;2023-04-03T13:45:56;2.85;;;0.60;;
52918;SDS011;38793;52.690;6.812;2023-04-03T13:48:34;0.60;;;0.30;;
52918;SDS011;38793;52.690;6.812;2023-04-03T13:53:43;1.33;;;0.60;;
52918;SDS011;38793;52.690;6.812;2023-04-03T13:59:05;3.03;;;0.30;;
52918;SDS011;38793;52.690;6.812;2023-04-03T14:01:42;3.80;;;0.55;;
52918;SDS011;38793;52.690;6.812;2023-04-03T14:07:09;1.48;;;0.70;;
52918;SDS011;38793;52.690;6.812;2023-04-03T14:09:36;1.10;;;0.40;;
52918;SDS011;38793;52.690;6.812;2023-04-03T14:12:04;2.05;;;0.50;;
52918;SDS011;38793;52.690;6.812;2023-04-03T14:14:33;1.92;;;0.57;;
52918;SDS011;38793;52.690;6.812;2023-04-03T14:17:01;1.50;;;0.60;;
52918;SDS011;38793;52.690;6.812;2023-04-03T14:19:35;4.78;;;0.50;;
52918;SDS011;38793;52.690;6.812;2023-04-03T14:22:07;1.90;;;0.40;;
52918;SDS011;38793;52.690;6.812;2023-04-03T14:24:42;1.50;;;0.40;;
52918;SDS011;38793;52.690;6.812;2023-04-03T14:29:39;3.75;;;0.75;;
52918;SDS011;38793;52.690;6.812;2023-04-03T14:32:05;1.37;;;0.67;;
52918;SDS011;38793;52.690;6.812;2023-04-03T14:34:31;1.27;;;0.30;;
52918;SDS011;38793;52.690;6.812;2023-04-03T14:36:56;2.30;;;0.60;;
52918;SDS011;38793;52.690;6.812;2023-04-03T14:39:22;0.55;;;0.30;;
52918;SDS011;38793;52.690;6.812;2023-04-03T14:41:48;3.23;;;0.40;;
52918;SDS011;38793;52.690;6.812;2023-04-03T14:44:13;1.20;;;0.40;;
52918;SDS011;38793;52.690;6.812;2023-04-03T14:46:40;2.13;;;0.45;;
52918;SDS011;38793;52.690;6.812;2023-04-03T14:49:21;2.85;;;0.47;;
52918;SDS011;38793;52.690;6.812;2023-04-03T14:51:49;3.67;;;0.80;;
52918;SDS011;38793;52.690;6.812;2023-04-03T14:54:17;1.63;;;0.75;;
52918;SDS011;38793;52.690;6.812;2023-04-03T14:56:50;1.92;;;0.50;;
52918;SDS011;38793;52.690;6.812;2023-04-03T14:59:16;1.13;;;0.60;;
52918;SDS011;38793;52.690;6.812;2023-04-03T15:01:42;2.65;;;0.30;;
52918;SDS011;38793;52.690;6.812;2023-04-03T15:04:15;2.40;;;0.50;;
52918;SDS011;38793;52.690;6.812;2023-04-03T15:06:42;2.03;;;0.30;;
52918;SDS011;38793;52.690;6.812;2023-04-03T15:09:29;8.68;;;0.98;;
52918;SDS011;38793;52.690;6.812;2023-04-03T15:11:54;2.78;;;0.32;;
52918;SDS011;38793;52.690;6.812;2023-04-03T15:14:20;1.00;;;0.40;;
52918;SDS011;38793;52.690;6.812;2023-04-03T15:16:46;1.88;;;0.43;;
52918;SDS011;38793;52.690;6.812;2023-04-03T15:19:12;1.92;;;0.70;;
52918;SDS011;38793;52.690;6.812;2023-04-03T15:21:38;0.83;;;0.33;;
52918;SDS011;38793;52.690;6.812;2023-04-03T15:24:04;2.53;;;0.88;;
52918;SDS011;38793;52.690;6.812;2023-04-03T15:26:30;1.88;;;0.45;;
52918;SDS011;38793;52.690;6.812;2023-04-03T15:28:56;3.00;;;0.63;;
52918;SDS011;38793;52.690;6.812;2023-04-03T15:31:22;4.33;;;0.50;;
52918;SDS011;38793;52.690;6.812;2023-04-03T15:33:48;7.25;;;0.63;;
52918;SDS011;38793;52.690;6.812;2023-04-03T15:36:13;3.93;;;0.50;;
52918;SDS011;38793;52.690;6.812;2023-04-03T15:38:39;6.32;;;1.05;;
52918;SDS011;38793;52.690;6.812;2023-04-03T15:41:05;2.60;;;0.52;;
52918;SDS011;38793;52.690;6.812;2023-04-03T15:43:31;2.85;;;0.60;;
52918;SDS011;38793;52.690;6.812;2023-04-03T15:45:58;1.65;;;0.60;;
52918;SDS011;38793;52.690;6.812;2023-04-03T15:48:25;1.67;;;0.40;;
52918;SDS011;38793;52.690;6.812;2023-04-03T15:50:52;2.15;;;0.50;;
52918;SDS011;38793;52.690;6.812;2023-04-03T15:53:18;1.25;;;0.47;;
52918;SDS011;38793;52.690;6.812;2023-04-03T15:55:44;2.97;;;0.40;;
52918;SDS011;38793;52.690;6.812;2023-04-03T15:58:09;2.05;;;0.68;;
52918;SDS011;38793;52.690;6.812;2023-04-03T16:00:35;1.90;;;0.80;;
52918;SDS011;38793;52.690;6.812;2023-04-03T16:03:09;4.25;;;0.40;;
52918;SDS011;38793;52.690;6.812;2023-04-03T16:05:38;2.30;;;0.45;;
52918;SDS011;38793;52.690;6.812;2023-04-03T16:08:04;2.22;;;0.57;;
52918;SDS011;38793;52.690;6.812;2023-04-03T16:10:32;4.03;;;0.50;;
52918;SDS011;38793;52.690;6.812;2023-04-03T16:12:58;1.27;;;0.63;;
52918;SDS011;38793;52.690;6.812;2023-04-03T16:15:24;10.27;;;1.70;;
52918;SDS011;38793;52.690;6.812;2023-04-03T16:17:51;3.17;;;0.60;;
52918;SDS011;38793;52.690;6.812;2023-04-03T16:20:18;1.85;;;0.70;;
52918;SDS011;38793;52.690;6.812;2023-04-03T16:22:44;4.43;;;1.25;;
52918;SDS011;38793;52.690;6.812;2023-04-03T16:25:10;5.10;;;1.02;;
52918;SDS011;38793;52.690;6.812;2023-04-03T16:27:36;2.63;;;0.60;;
52918;SDS011;38793;52.690;6.812;2023-04-03T16:32:29;1.58;;;1.13;;
52918;SDS011;38793;52.690;6.812;2023-04-03T16:34:56;2.75;;;0.70;;
52918;SDS011;38793;52.690;6.812;2023-04-03T16:37:23;4.68;;;0.80;;
52918;SDS011;38793;52.690;6.812;2023-04-03T16:39:49;2.00;;;0.50;;
52918;SDS011;38793;52.690;6.812;2023-04-03T16:42:14;11.02;;;1.20;;
52918;SDS011;38793;52.690;6.812;2023-04-03T16:44:40;2.40;;;0.55;;
52918;SDS011;38793;52.690;6.812;2023-04-03T16:47:06;17.75;;;1.65;;
52918;SDS011;38793;52.690;6.812;2023-04-03T16:49:32;16.38;;;2.47;;
52918;SDS011;38793;52.690;6.812;2023-04-03T16:51:59;9.13;;;0.68;;
52918;SDS011;38793;52.690;6.812;2023-04-03T16:54:29;2.78;;;0.80;;
52918;SDS011;38793;52.690;6.812;2023-04-03T16:56:55;4.40;;;0.77;;
52918;SDS011;38793;52.690;6.812;2023-04-03T16:59:21;3.70;;;0.77;;
52918;SDS011;38793;52.690;6.812;2023-04-03T17:01:46;1.38;;;0.40;;
52918;SDS011;38793;52.690;6.812;2023-04-03T17:04:12;1.48;;;0.40;;